createdAt,value
2022-12-07T00:00:00.645Z,3.9
2022-12-07T00:05:00.161Z,3.9
2022-12-07T00:10:00.373Z,3.9
2022-12-07T00:15:00.179Z,3.9
2022-12-07T00:20:00.490Z,3.8
2022-12-07T00:25:00.170Z,3.8
2022-12-07T00:30:00.548Z,3.8
2022-12-07T00:35:00.169Z,3.7
2022-12-07T00:40:00.610Z,3.6
2022-12-07T00:45:00.181Z,3.7
2022-12-07T00:50:00.399Z,3.6
2022-12-07T00:55:00.187Z,3.7
2022-12-07T01:00:00.613Z,3.7
2022-12-07T01:05:00.180Z,3.7
2022-12-07T01:10:00.508Z,3.7
2022-12-07T01:15:00.167Z,3.7
2022-12-07T01:20:00.689Z,3.7
2022-12-07T01:25:00.165Z,3.7
2022-12-07T01:30:00.492Z,3.8
2022-12-07T01:35:00.185Z,3.8
2022-12-07T01:40:00.631Z,3.7
2022-12-07T01:45:00.174Z,3.8
2022-12-07T01:50:00.473Z,3.8
2022-12-07T01:55:00.174Z,3.7
2022-12-07T02:00:00.686Z,3.7
2022-12-07T02:05:00.175Z,3.8
2022-12-07T02:10:00.553Z,3.8
2022-12-07T02:15:00.164Z,3.8
2022-12-07T02:20:00.491Z,3.8
2022-12-07T02:25:00.172Z,3.7
2022-12-07T02:30:00.598Z,3.7
2022-12-07T02:35:00.168Z,3.6
2022-12-07T02:40:00.655Z,3.6
2022-12-07T02:45:00.164Z,3.6
2022-12-07T02:50:00.728Z,3.6
2022-12-07T02:55:00.172Z,3.7
2022-12-07T03:00:00.605Z,3.8
2022-12-07T03:05:00.175Z,3.8
2022-12-07T03:10:00.493Z,3.8
2022-12-07T03:15:00.168Z,3.9
2022-12-07T03:20:00.939Z,3.9
2022-12-07T03:25:00.187Z,3.9
2022-12-07T03:30:00.861Z,3.9
2022-12-07T03:35:00.173Z,3.9
2022-12-07T03:40:00.546Z,3.9
2022-12-07T03:45:00.184Z,3.7
2022-12-07T03:50:00.641Z,3.6
2022-12-07T03:55:00.183Z,3.5
2022-12-07T04:00:00.723Z,3.5
2022-12-07T04:05:00.167Z,3.6
2022-12-07T04:10:00.848Z,3.6
2022-12-07T04:15:00.196Z,3.7
2022-12-07T04:20:00.952Z,3.7
2022-12-07T04:25:00.199Z,3.6
2022-12-07T04:30:00.693Z,3.4
2022-12-07T04:35:00.187Z,3.3
2022-12-07T04:40:00.578Z,3.2
2022-12-07T04:45:00.189Z,3.1
2022-12-07T04:50:00.680Z,3.1
2022-12-07T04:55:00.177Z,3.0
2022-12-07T05:00:00.790Z,2.9
2022-12-07T05:05:00.182Z,2.9
2022-12-07T05:10:00.742Z,2.7
2022-12-07T05:15:00.184Z,2.8
2022-12-07T05:20:00.802Z,2.7
2022-12-07T05:25:00.176Z,2.6
2022-12-07T05:30:00.618Z,2.7
2022-12-07T05:35:00.178Z,3.0
2022-12-07T05:40:00.723Z,3.1
2022-12-07T05:45:00.169Z,3.2
2022-12-07T05:50:00.607Z,3.2
2022-12-07T05:55:00.192Z,3.3
2022-12-07T06:00:00.734Z,3.4
2022-12-07T06:05:00.184Z,3.4
2022-12-07T06:10:00.746Z,3.2
2022-12-07T06:15:00.222Z,3.1
2022-12-07T06:20:00.672Z,3.1
2022-12-07T06:25:04.649Z,3.0
2022-12-07T06:30:00.690Z,3.0
2022-12-07T06:35:00.211Z,3.0
2022-12-07T06:40:00.820Z,3.0
2022-12-07T06:45:00.234Z,2.9
2022-12-07T06:50:00.636Z,2.9
2022-12-07T06:55:00.190Z,2.7
2022-12-07T07:00:00.770Z,2.4
2022-12-07T07:05:00.181Z,2.2
2022-12-07T07:10:00.634Z,2.0
2022-12-07T07:15:00.215Z,1.8
2022-12-07T07:20:00.679Z,1.8
2022-12-07T07:25:00.187Z,1.7
2022-12-07T07:30:00.723Z,1.7
2022-12-07T07:35:00.229Z,1.7
2022-12-07T07:40:00.568Z,1.9
2022-12-07T07:45:00.203Z,2.0
2022-12-07T07:50:00.317Z,2.1
2022-12-07T07:55:00.197Z,2.4
2022-12-07T08:00:00.496Z,2.7
2022-12-07T08:05:00.253Z,2.9
2022-12-07T08:10:00.822Z,3.0
2022-12-07T08:15:00.203Z,3.2
2022-12-07T08:20:00.833Z,3.1
2022-12-07T08:25:00.188Z,3.2
2022-12-07T08:30:00.679Z,3.2
2022-12-07T08:35:00.217Z,3.4
2022-12-07T08:40:00.552Z,3.6
2022-12-07T08:45:00.200Z,3.6
2022-12-07T08:50:00.510Z,3.6
2022-12-07T08:55:00.185Z,3.6
2022-12-07T09:00:00.712Z,3.5
2022-12-07T09:05:00.200Z,3.5
2022-12-07T09:10:00.654Z,3.5
2022-12-07T09:15:00.197Z,3.5
2022-12-07T09:20:00.508Z,3.5
2022-12-07T09:25:00.208Z,3.6
2022-12-07T09:30:00.601Z,3.7
2022-12-07T09:35:00.340Z,4.0
2022-12-07T09:40:00.184Z,4.0
2022-12-07T09:45:00.218Z,4.1
2022-12-07T09:50:00.799Z,4.5
2022-12-07T09:55:00.718Z,4.8
2022-12-07T10:00:00.210Z,5.0
2022-12-07T10:05:00.869Z,5.1
2022-12-07T10:10:00.195Z,5.4
2022-12-07T10:15:08.206Z,5.3
2022-12-07T10:20:00.216Z,5.1
2022-12-07T10:25:00.455Z,4.9
2022-12-07T10:30:00.198Z,5.3
2022-12-07T10:35:00.229Z,5.8
2022-12-07T10:40:00.215Z,5.9
2022-12-07T10:45:00.617Z,5.6
2022-12-07T10:50:00.191Z,5.4
2022-12-07T10:55:00.457Z,5.2
2022-12-07T11:00:00.292Z,5.4
2022-12-07T11:05:00.606Z,5.5
2022-12-07T11:10:08.441Z,5.6
2022-12-07T11:15:00.173Z,5.8
2022-12-07T11:20:00.520Z,5.9
2022-12-07T11:25:00.217Z,5.9
2022-12-07T11:30:00.646Z,6.1
2022-12-07T11:35:00.244Z,6.3
2022-12-07T11:40:00.461Z,6.0
2022-12-07T11:45:00.212Z,5.9
2022-12-07T11:50:00.176Z,6.3
2022-12-07T11:55:00.214Z,6.4
2022-12-07T12:00:00.579Z,6.6
2022-12-07T12:05:00.183Z,6.9
2022-12-07T12:10:00.194Z,7.1
2022-12-07T12:15:00.417Z,6.8
2022-12-07T12:20:00.188Z,6.8
2022-12-07T12:25:00.649Z,6.7
2022-12-07T12:30:00.247Z,6.5
2022-12-07T12:35:00.201Z,6.5
2022-12-07T12:40:00.189Z,6.7
2022-12-07T12:45:00.397Z,6.8
2022-12-07T12:50:00.191Z,7.1
2022-12-07T12:55:00.569Z,6.8
2022-12-07T13:00:00.248Z,6.7
2022-12-07T13:05:00.562Z,7.0
2022-12-07T13:10:00.179Z,7.4
2022-12-07T13:15:00.762Z,7.6
2022-12-07T13:20:00.217Z,7.0
2022-12-07T13:25:00.556Z,7.2
2022-12-07T13:30:00.214Z,7.4
2022-12-07T13:35:00.487Z,7.4
2022-12-07T13:40:00.193Z,7.0
2022-12-07T13:45:00.629Z,6.9
2022-12-07T13:50:00.214Z,6.6
2022-12-07T13:55:00.556Z,6.5
2022-12-07T14:00:00.304Z,6.7
2022-12-07T14:05:00.711Z,6.6
2022-12-07T14:10:00.198Z,6.5
2022-12-07T14:15:00.910Z,6.4
2022-12-07T14:20:00.181Z,6.4
2022-12-07T14:25:00.541Z,6.3
2022-12-07T14:30:00.304Z,6.1
2022-12-07T14:35:00.754Z,5.5
2022-12-07T14:40:00.205Z,5.2
2022-12-07T14:45:00.555Z,5.0
2022-12-07T14:50:03.246Z,5.0
2022-12-07T14:55:00.480Z,4.8
2022-12-07T15:00:00.251Z,4.7
2022-12-07T15:05:00.687Z,4.7
2022-12-07T15:10:00.212Z,4.6
2022-12-07T15:15:00.692Z,4.4
2022-12-07T15:20:00.179Z,4.4
2022-12-07T15:25:00.662Z,4.3
2022-12-07T15:30:00.292Z,4.3
2022-12-07T15:35:00.579Z,4.4
2022-12-07T15:40:05.702Z,4.4
2022-12-07T15:45:00.535Z,4.4
2022-12-07T15:50:00.175Z,4.4
2022-12-07T15:55:00.374Z,4.4
2022-12-07T16:00:00.382Z,4.4
2022-12-07T16:05:00.472Z,4.3
2022-12-07T16:10:00.197Z,4.4
2022-12-07T16:15:00.632Z,4.4
2022-12-07T16:20:00.204Z,4.3
2022-12-07T16:25:00.375Z,4.2
2022-12-07T16:30:00.298Z,4.1
2022-12-07T16:35:00.444Z,4.1
2022-12-07T16:40:00.187Z,4.0
2022-12-07T16:45:00.793Z,4.0
2022-12-07T16:50:00.180Z,4.0
2022-12-07T16:55:00.340Z,4.0
2022-12-07T17:00:00.240Z,4.0
2022-12-07T17:05:00.546Z,4.0
2022-12-07T17:10:00.221Z,4.0
2022-12-07T17:15:00.379Z,4.0
2022-12-07T17:20:00.208Z,4.0
2022-12-07T17:25:00.546Z,4.0
2022-12-07T17:30:00.250Z,4.0
2022-12-07T17:35:00.545Z,4.0
2022-12-07T17:40:00.335Z,4.0
2022-12-07T17:45:00.330Z,4.0
2022-12-07T17:50:06.465Z,4.0
2022-12-07T17:55:00.560Z,3.9
2022-12-07T18:00:00.580Z,3.9
2022-12-07T18:05:00.565Z,3.8
2022-12-07T18:10:00.176Z,3.8
2022-12-07T18:15:00.545Z,3.7
2022-12-07T18:20:00.163Z,3.7
2022-12-07T18:25:00.383Z,3.7
2022-12-07T18:30:00.213Z,3.7
2022-12-07T18:35:00.317Z,3.7
2022-12-07T18:40:00.172Z,3.7
2022-12-07T18:45:00.321Z,3.7
2022-12-07T18:50:00.172Z,3.7
2022-12-07T18:55:00.335Z,3.6
2022-12-07T19:00:00.216Z,3.6
2022-12-07T19:05:00.459Z,3.6
2022-12-07T19:10:00.177Z,3.6
2022-12-07T19:15:00.292Z,3.6
2022-12-07T19:20:00.180Z,3.6
2022-12-07T19:25:00.628Z,3.6
2022-12-07T19:30:00.192Z,3.6
2022-12-07T19:35:00.501Z,3.6
2022-12-07T19:40:00.384Z,3.7
2022-12-07T19:45:00.560Z,3.7
2022-12-07T19:50:00.191Z,3.7
2022-12-07T19:55:00.749Z,3.7
2022-12-07T20:00:00.299Z,3.7
2022-12-07T20:05:04.485Z,3.6
2022-12-07T20:10:00.186Z,3.7
2022-12-07T20:15:00.320Z,3.6
2022-12-07T20:20:00.205Z,3.6
2022-12-07T20:25:00.376Z,3.6
2022-12-07T20:30:00.183Z,3.6
2022-12-07T20:35:00.371Z,3.5
2022-12-07T20:40:00.171Z,3.5
2022-12-07T20:45:03.248Z,3.5
2022-12-07T20:50:00.190Z,3.5
2022-12-07T20:55:00.516Z,3.5
2022-12-07T21:00:00.227Z,3.4
2022-12-07T21:05:00.397Z,3.4
2022-12-07T21:10:00.186Z,3.4
2022-12-07T21:15:00.436Z,3.4
2022-12-07T21:20:00.169Z,3.4
2022-12-07T21:25:00.358Z,3.4
2022-12-07T21:30:00.235Z,3.3
2022-12-07T21:35:00.417Z,3.3
2022-12-07T21:40:00.175Z,3.3
2022-12-07T21:45:00.510Z,3.3
2022-12-07T21:50:01.709Z,3.3
2022-12-07T21:55:00.403Z,3.2
2022-12-07T22:00:00.199Z,3.2
2022-12-07T22:05:00.369Z,3.1
2022-12-07T22:10:00.212Z,3.1
2022-12-07T22:15:00.516Z,3.1
2022-12-07T22:20:00.234Z,3.0
2022-12-07T22:25:00.367Z,3.0
2022-12-07T22:30:00.220Z,2.9
2022-12-07T22:35:00.486Z,2.9
2022-12-07T22:40:00.204Z,2.9
2022-12-07T22:45:00.359Z,2.9
2022-12-07T22:50:00.205Z,2.8
2022-12-07T22:55:00.537Z,2.8
2022-12-07T23:00:00.226Z,2.7
2022-12-07T23:05:00.444Z,2.6
2022-12-07T23:10:00.207Z,2.6
2022-12-07T23:15:00.391Z,2.5
2022-12-07T23:20:00.212Z,2.5
2022-12-07T23:25:00.435Z,2.3
2022-12-07T23:30:00.195Z,2.3
2022-12-07T23:35:00.494Z,2.3
2022-12-07T23:40:00.227Z,2.3
2022-12-07T23:45:00.501Z,2.3
2022-12-07T23:50:00.200Z,2.4
2022-12-07T23:55:00.398Z,2.5
